Погода Парагуасу-Паулистана 2 недели

Сан-Паулу, Бразилия

21 июля-03 августа
  • 21июля
    Сегодня
    +15°
    +31°
    Ясно и безоблачно
    ВремяПогодаТемператураВлажностьДавлениеВетер, м/сВероятность осадков
    00:00Ясно и безоблачно+18°C48 %718 мм3.4 м/с5 %
    03:00Ясно и безоблачно+17°C49 %718 мм3.7 м/с5 %
    06:00Ясно и безоблачно+15°C67 %718 мм3.1 м/с5 %
    09:00Ясно и безоблачно+19°C58 %720 мм2.6 м/с5 %
    12:00Ясно и безоблачно+26°C36 %720 мм2.2 м/с5 %
    15:00Ясно и безоблачно+30°C26 %718 мм1.4 м/с5 %
    18:00Ясно и безоблачно+26°C42 %717 мм2.6 м/с5 %
    21:00Ясно и безоблачно+22°C60 %718 мм3.0 м/с5 %
  • 22июля
    Понедельник
    +16°
    +31°
    Ясно и безоблачно
    ВремяПогодаТемператураВлажностьДавлениеВетер, м/сВероятность осадков
    00:00Ясно и безоблачно+19°C74 %719 мм2.4 м/с5 %
    03:00Ясно и безоблачно+17°C81 %718 мм2.4 м/с5 %
    06:00Ясно и безоблачно+16°C86 %718 мм2.2 м/с5 %
    09:00Ясно и безоблачно+22°C61 %720 мм2.2 м/с5 %
    12:00Ясно и безоблачно+28°C30 %720 мм2.0 м/с5 %
    15:00Ясно и безоблачно+30°C25 %719 мм0.3 м/с5 %
    18:00Ясно и безоблачно+27°C33 %719 мм2.1 м/с5 %
    21:00Ясно и безоблачно+22°C50 %719 мм2.6 м/с5 %
  • 23июля
    Вторник
    +16°
    +31°
    Ясно и безоблачно
    ВремяПогодаТемператураВлажностьДавлениеВетер, м/сВероятность осадков
    00:00Ясно и безоблачно+20°C51 %719 мм3.1 м/с5 %
    03:00Ясно и безоблачно+19°C59 %719 мм3.5 м/с5 %
    06:00Ясно и безоблачно+17°C62 %719 мм3.6 м/с5 %
    09:00Ясно и безоблачно+21°C48 %721 мм3.5 м/с5 %
    12:00Ясно и безоблачно+28°C29 %721 мм3.5 м/с5 %
    15:00Ясно и безоблачно+31°C23 %719 мм2.4 м/с5 %
    18:00Ясно и безоблачно+27°C33 %719 мм2.9 м/с5 %
    21:00Ясно и безоблачно+23°C45 %719 мм4.0 м/с5 %
  • 24июля
    Среда
    +16°
    +32°
    Облачно с прояснениями
    ВремяПогодаТемператураВлажностьДавлениеВетер, м/сВероятность осадков
    00:00Ясно и безоблачно+20°C50 %719 мм3.7 м/с5 %
    03:00Небольшая облачность+18°C52 %718 мм3.5 м/с5 %
    06:00Практически безоблачно+17°C60 %718 мм3.5 м/с5 %
    09:00Ясно и безоблачно+21°C49 %720 мм3.2 м/с5 %
    12:00Небольшая облачность+29°C28 %720 мм4.1 м/с5 %
    15:00Облачно с прояснениями+31°C24 %719 мм2.9 м/с5 %
    18:00Ясно и безоблачно+27°C37 %718 мм2.6 м/с5 %
    21:00Ясно и безоблачно+25°C42 %718 мм3.0 м/с5 %
  • 25июля
    Четверг
    +19°
    +33°
    Ясно и безоблачно
    ВремяПогодаТемператураВлажностьДавлениеВетер, м/сВероятность осадков
    00:00Ясно и безоблачно+22°C47 %718 мм2.5 м/с5 %
    03:00Ясно и безоблачно+19°C57 %717 мм2.4 м/с5 %
    06:00Ясно и безоблачно+17°C65 %717 мм2.1 м/с5 %
    09:00Ясно и безоблачно+22°C47 %719 мм2.2 м/с5 %
    12:00Ясно и безоблачно+30°C27 %719 мм3.3 м/с5 %
    15:00Ясно и безоблачно+32°C23 %717 мм2.1 м/с5 %
    18:00Ясно и безоблачно+27°C33 %716 мм2.1 м/с5 %
    21:00Ясно и безоблачно+24°C43 %717 мм2.3 м/с5 %
Мы используем cookies
Соглашаюсь